Time;durP1;ratioP1;P1;durP2;ratioP2;P2;SDS_P1;SDS_P2;PMS_P1;PMS_P2;Temp;Humidity;BMP_temperature;BMP_pressure;BME280_temperature;BME280_humidity;BME280_pressure;Samples;Min_cycle;Max_cycle;Signal;HPM_P1;HPM_P2
2021/05/25 00:00:37;;;;;;;1.77;1.67;;;;;;;17.13;66.14;101870.13;4982355;28;101781;-66
2021/05/25 00:03:07;;;;;;;2.50;1.80;;;;;;;17.13;66.17;101872.88;4981794;28;101693;-65
2021/05/25 00:05:35;;;;;;;2.15;1.95;;;;;;;17.12;66.59;101871.25;4981869;28;102148;-65
2021/05/25 00:08:01;;;;;;;2.08;1.73;;;;;;;17.11;66.34;101866.88;4981495;28;103750;-66
2021/05/25 00:10:29;;;;;;;1.95;1.70;;;;;;;17.10;66.18;101857.81;4982062;28;101794;-66
2021/05/25 00:12:58;;;;;;;1.95;1.50;;;;;;;17.10;66.67;101863.31;4980173;28;101840;-66
2021/05/25 00:15:27;;;;;;;1.80;1.60;;;;;;;17.10;66.83;101854.25;4983060;28;102177;-66
2021/05/25 00:17:54;;;;;;;1.63;1.35;;;;;;;17.09;66.53;101858.06;4981275;28;103859;-66
2021/05/25 00:20:23;;;;;;;1.40;1.30;;;;;;;17.09;66.72;101853.38;4981833;28;101699;-66
2021/05/25 00:22:49;;;;;;;1.45;1.33;;;;;;;17.10;66.36;101854.25;4981636;28;101861;-66
2021/05/25 00:25:16;;;;;;;1.85;1.48;;;;;;;17.10;66.21;101851.50;4982635;28;102176;-65
2021/05/25 00:27:43;;;;;;;1.75;1.50;;;;;;;17.08;66.36;101846.25;4981063;28;103951;-66
2021/05/25 00:30:14;;;;;;;2.75;1.92;;;;;;;17.10;66.33;101848.75;4981769;28;101711;-66
2021/05/25 00:32:41;;;;;;;1.77;1.45;;;;;;;17.11;66.08;101853.13;4981415;28;101708;-66
2021/05/25 00:35:09;;;;;;;2.13;1.60;;;;;;;17.11;66.69;101853.13;4982671;28;102161;-66
2021/05/25 00:37:35;;;;;;;3.88;1.63;;;;;;;17.10;66.45;101860.56;4980132;28;103921;-66
2021/05/25 00:40:03;;;;;;;2.75;1.90;;;;;;;17.10;66.57;101851.50;4981966;28;101835;-66
2021/05/25 00:42:29;;;;;;;1.70;1.60;;;;;;;17.10;66.48;101859.75;4981289;28;101792;-66
2021/05/25 00:44:56;;;;;;;2.72;1.48;;;;;;;17.10;66.19;101854.25;4982579;28;102139;-65
2021/05/25 00:47:27;;;;;;;1.60;1.50;;;;;;;17.10;66.18;101865.25;4980602;28;104151;-66
2021/05/25 00:49:54;;;;;;;1.70;1.60;;;;;;;17.09;66.47;101858.06;4980312;28;101770;-66
2021/05/25 00:52:21;;;;;;;3.05;1.50;;;;;;;17.09;66.38;101856.13;4980884;28;102128;-66
2021/05/25 00:54:48;;;;;;;1.85;1.40;;;;;;;17.09;66.60;101855.31;4982448;28;102226;-66
2021/05/25 00:57:15;;;;;;;1.98;1.60;;;;;;;17.09;66.40;101844.31;4980418;28;104115;-65
2021/05/25 00:59:41;;;;;;;1.30;1.20;;;;;;;17.09;66.57;101847.06;4980596;28;101713;-66
2021/05/25 01:02:08;;;;;;;1.77;1.20;;;;;;;17.08;66.10;101850.94;4980144;28;101735;-66
2021/05/25 01:04:36;;;;;;;2.78;1.60;;;;;;;17.08;66.59;101859.19;4981444;28;102177;-66
2021/05/25 01:07:03;;;;;;;2.83;1.57;;;;;;;17.08;66.72;101872.94;4980032;28;103587;-66
2021/05/25 01:09:32;;;;;;;1.98;1.30;;;;;;;17.07;66.43;101877.63;4980887;28;101724;-66
2021/05/25 01:12:04;;;;;;;2.20;1.60;;;;;;;17.07;66.58;101874.88;4980419;28;101690;-66
2021/05/25 01:14:38;;;;;;;1.65;1.30;;;;;;;17.06;66.51;101881.50;4981998;28;102203;-66
2021/05/25 01:17:05;;;;;;;1.90;1.38;;;;;;;17.07;66.31;101872.13;4980973;28;103845;-66
2021/05/25 01:19:32;;;;;;;2.67;1.30;;;;;;;17.07;66.22;101869.38;4981157;28;101810;-66
2021/05/25 01:21:59;;;;;;;1.15;1.05;;;;;;;17.07;66.26;101869.38;4980907;28;101765;-66
2021/05/25 01:24:30;;;;;;;1.65;1.30;;;;;;;17.07;66.52;101871.31;4981019;28;102220;-66
2021/05/25 01:27:00;;;;;;;1.60;1.50;;;;;;;17.05;66.42;101858.66;4963098;28;104117;-66
2021/05/25 01:29:27;;;;;;;1.20;1.10;;;;;;;17.06;66.05;101862.25;4963695;28;101663;-66
2021/05/25 01:31:53;;;;;;;1.40;1.30;;;;;;;17.07;66.05;101866.63;4980676;28;101596;-66
2021/05/25 01:34:20;;;;;;;2.90;1.40;;;;;;;17.05;66.10;101864.16;4982142;28;102054;-66
2021/05/25 01:36:46;;;;;;;2.60;1.38;;;;;;;17.07;66.50;101861.13;4980348;28;103842;-66
2021/05/25 01:39:14;;;;;;;2.75;1.30;;;;;;;17.06;66.55;101856.75;4981042;28;101771;-66
2021/05/25 01:41:41;;;;;;;1.40;1.30;;;;;;;17.07;66.54;101849.31;4980503;28;101773;-66
2021/05/25 01:44:08;;;;;;;1.63;1.30;;;;;;;17.05;66.47;101841.31;4981667;28;102134;-66
2021/05/25 01:46:35;;;;;;;1.40;1.30;;;;;;;17.05;66.43;101847.66;4978950;28;103961;-66
2021/05/25 01:49:02;;;;;;;2.15;1.35;;;;;;;17.05;66.55;101852.31;4981206;28;101904;-67
2021/05/25 01:51:29;;;;;;;1.80;1.67;;;;;;;17.05;66.37;101858.66;4979652;28;101971;-66
2021/05/25 01:53:55;;;;;;;1.42;1.20;;;;;;;17.05;66.11;101853.16;4981777;28;101979;-66
2021/05/25 01:56:23;;;;;;;2.30;1.30;;;;;;;17.07;66.68;101849.31;4980271;28;103895;-66
2021/05/25 01:58:50;;;;;;;2.17;1.30;;;;;;;17.04;66.33;101843.25;4980880;28;101749;-66
2021/05/25 02:01:16;;;;;;;1.60;1.25;;;;;;;17.05;66.36;101858.66;4963245;28;101769;-66
2021/05/25 02:03:43;;;;;;;1.45;1.13;;;;;;;17.05;66.15;101861.41;4981496;28;102187;-65
2021/05/25 02:06:10;;;;;;;1.45;1.20;;;;;;;17.05;66.33;101855.06;4980103;28;104161;-65
2021/05/25 02:08:37;;;;;;;1.75;1.25;;;;;;;17.04;66.13;101857.00;4980951;28;101679;-65
2021/05/25 02:11:07;;;;;;;1.73;1.35;;;;;;;17.04;66.56;101850.69;4980515;28;101769;-66
2021/05/25 02:13:36;;;;;;;1.45;1.35;;;;;;;17.04;66.55;101851.50;4981579;28;102232;-66
2021/05/25 02:16:06;;;;;;;2.63;1.25;;;;;;;17.04;66.53;101854.25;4980176;28;104347;-66
2021/05/25 02:18:36;;;;;;;1.20;1.10;;;;;;;17.04;66.16;101865.25;4980517;28;101722;-66
2021/05/25 02:21:06;;;;;;;1.40;1.27;;;;;;;17.05;66.32;101866.91;4981552;28;101797;-66
2021/05/25 02:23:33;;;;;;;2.05;1.50;;;;;;;17.05;66.77;101852.31;4983751;28;101723;-66
2021/05/25 02:26:00;;;;;;;2.00;1.40;;;;;;;17.04;66.68;101845.19;4982833;28;103979;-66
2021/05/25 02:28:27;;;;;;;1.70;1.35;;;;;;;17.03;66.67;101847.13;4983109;28;101764;-66
2021/05/25 02:30:55;;;;;;;1.67;1.20;;;;;;;17.03;66.58;101844.38;4982339;28;101787;-66
2021/05/25 02:33:23;;;;;;;1.88;1.30;;;;;;;17.03;66.71;101849.88;4981615;28;102288;-66
2021/05/25 02:35:54;;;;;;;1.52;1.20;;;;;;;17.03;66.31;101855.38;4981020;28;102676;-66
2021/05/25 02:38:22;;;;;;;1.40;1.27;;;;;;;17.02;66.80;101845.50;4981157;28;101698;-66
2021/05/25 02:40:50;;;;;;;1.20;1.08;;;;;;;17.02;66.63;101845.50;4981870;28;101748;-66
2021/05/25 02:43:19;;;;;;;1.20;1.10;;;;;;;17.02;66.57;101848.25;4983992;28;102109;-66
2021/05/25 02:45:46;;;;;;;1.70;1.40;;;;;;;17.01;66.47;101837.50;4981397;28;102749;-68
2021/05/25 02:48:17;;;;;;;1.07;0.97;;;;;;;17.01;66.55;101829.25;4965727;28;101802;-66
2021/05/25 02:50:43;;;;;;;1.73;1.58;;;;;;;17.00;66.70;101820.19;4982798;28;101616;-66
2021/05/25 02:53:11;;;;;;;1.33;1.13;;;;;;;17.00;66.48;101825.69;4983231;28;102076;-67
2021/05/25 02:55:39;;;;;;;1.50;1.27;;;;;;;17.00;66.51;101820.19;4982498;28;103941;-66
2021/05/25 02:58:06;;;;;;;;;;;;;;;17.02;66.52;101819.91;4983322;28;101646;-66
2021/05/25 03:00:36;;;;;;;1.70;1.25;;;;;;;17.02;66.19;101818.00;4981062;28;101673;-66
2021/05/25 03:03:03;;;;;;;1.33;1.23;;;;;;;17.02;66.61;101820.75;4983788;28;102127;-66
2021/05/25 03:05:31;;;;;;;1.45;1.33;;;;;;;17.03;66.06;101818.81;4964424;28;103769;-66
2021/05/25 03:07:59;;;;;;;3.15;1.30;;;;;;;17.04;66.61;101820.44;4982844;28;101648;-66
2021/05/25 03:10:36;;;;;;;1.70;1.33;;;;;;;17.04;66.47;101828.69;4982686;28;101703;-67
2021/05/25 03:13:03;;;;;;;1.50;1.40;;;;;;;17.02;65.96;101820.75;4984059;28;102086;-66
2021/05/25 03:15:32;;;;;;;1.45;1.33;;;;;;;17.04;66.03;101829.50;4982595;28;103336;-66
2021/05/25 03:18:00;;;;;;;1.80;1.25;;;;;;;17.04;66.14;101829.50;4983299;28;101717;-66
2021/05/25 03:20:27;;;;;;;2.10;1.50;;;;;;;17.04;66.38;101824.00;4982580;28;101701;-66
2021/05/25 03:22:55;;;;;;;2.88;2.00;;;;;;;17.04;65.83;101818.50;4983597;28;102276;-66
2021/05/25 03:25:21;;;;;;;1.48;1.38;;;;;;;17.03;66.17;101811.38;4982327;28;104062;-66
2021/05/25 03:27:49;;;;;;;1.70;1.60;;;;;;;17.02;66.47;101809.75;4982952;28;101766;-66
2021/05/25 03:30:18;;;;;;;2.08;1.38;;;;;;;17.03;65.98;101805.06;4981851;28;101852;-66
2021/05/25 03:32:45;;;;;;;1.67;1.50;;;;;;;17.02;66.32;101804.25;4983055;28;102280;-66
2021/05/25 03:35:14;;;;;;;1.50;1.33;;;;;;;17.02;66.23;101798.75;4981636;28;104187;-66
2021/05/25 03:37:41;;;;;;;1.43;1.27;;;;;;;17.04;66.01;101801.19;4982066;28;101744;-65
2021/05/25 03:40:12;;;;;;;1.63;1.52;;;;;;;17.04;66.27;101806.69;4981684;28;101745;-66
2021/05/25 03:42:39;;;;;;;2.00;1.60;;;;;;;17.05;66.06;101813.81;4982754;28;102208;-66
2021/05/25 03:45:06;;;;;;;1.60;1.50;;;;;;;17.04;65.95;101813.00;4981344;28;103906;-66
2021/05/25 03:47:33;;;;;;;1.67;1.45;;;;;;;17.03;66.39;101805.06;4981091;28;101683;-66
2021/05/25 03:50:08;;;;;;;1.30;1.17;;;;;;;17.02;65.97;101798.75;4981535;28;101694;-65
2021/05/25 03:52:38;;;;;;;1.80;1.63;;;;;;;17.01;66.08;101791.59;4982336;28;101923;-66
2021/05/25 03:55:10;;;;;;;1.60;1.50;;;;;;;17.02;66.20;101797.91;4981067;28;103490;-66
2021/05/25 04:00:06;;;;;;;1.73;1.63;;;;;;;17.02;65.96;101804.25;4981212;28;101645;-66
2021/05/25 04:02:32;;;;;;;1.93;1.83;;;;;;;17.02;65.95;101801.50;4982407;28;102225;-66
2021/05/25 04:05:00;;;;;;;1.90;1.45;;;;;;;17.03;65.61;101814.13;4979782;28;103977;-66
2021/05/25 04:07:26;;;;;;;1.77;1.67;;;;;;;17.03;66.00;101816.88;4981581;28;101849;-66
2021/05/25 04:09:53;;;;;;;1.88;1.73;;;;;;;17.03;65.55;101819.63;4981079;28;101598;-66
2021/05/25 04:12:20;;;;;;;1.67;1.48;;;;;;;17.03;65.60;101822.38;4982334;28;102262;-66
2021/05/25 04:14:50;;;;;;;1.80;1.70;;;;;;;17.03;65.70;101816.88;4980693;28;104235;-66
2021/05/25 04:17:17;;;;;;;1.90;1.80;;;;;;;17.03;65.96;101821.56;4981655;28;101591;-66
2021/05/25 04:19:43;;;;;;;1.70;1.60;;;;;;;17.03;65.60;101805.88;4979739;28;101596;-66
2021/05/25 04:22:10;;;;;;;2.03;1.77;;;;;;;17.00;66.08;101795.44;4982165;28;102244;-66
2021/05/25 04:24:37;;;;;;;2.53;1.77;;;;;;;16.99;66.07;101793.81;4981159;28;102856;-66
2021/05/25 04:27:04;;;;;;;2.05;1.92;;;;;;;16.99;65.74;101799.31;4981628;28;101827;-67
2021/05/25 04:29:31;;;;;;;2.47;2.00;;;;;;;16.99;65.71;101799.31;4980910;28;101819;-66
2021/05/25 04:31:58;;;;;;;1.77;1.65;;;;;;;17.00;65.25;101811.94;4982157;28;103426;-66
2021/05/25 04:34:25;;;;;;;2.22;1.65;;;;;;;17.01;65.06;101815.50;4980698;28;103887;-66
2021/05/25 04:36:52;;;;;;;2.45;1.88;;;;;;;17.00;64.88;101806.44;4981713;28;101638;-66
2021/05/25 04:39:18;;;;;;;2.17;2.00;;;;;;;16.99;65.55;101804.81;4980822;28;101843;-66
2021/05/25 04:41:45;;;;;;;2.22;2.03;;;;;;;17.00;65.24;101817.44;4982062;28;102122;-66
2021/05/25 04:44:12;;;;;;;2.40;2.20;;;;;;;17.00;65.24;101817.44;4980475;28;104025;-66
2021/05/25 04:46:41;;;;;;;1.95;1.83;;;;;;;17.01;65.07;101826.50;4981264;28;101776;-66
2021/05/25 04:49:09;;;;;;;2.33;2.15;;;;;;;16.99;65.24;101815.81;4980551;28;101717;-66
2021/05/25 04:51:36;;;;;;;2.20;2.00;;;;;;;16.99;65.46;101813.06;4981273;28;102260;-66
2021/05/25 04:54:03;;;;;;;2.30;2.15;;;;;;;16.98;65.38;101811.41;4980561;28;103829;-66
2021/05/25 04:56:30;;;;;;;1.92;1.83;;;;;;;16.94;65.88;101815.03;4981187;28;101938;-67
2021/05/25 04:58:56;;;;;;;4.18;1.60;;;;;;;16.79;64.78;101824.22;4980780;28;101764;-66
2021/05/25 05:01:26;;;;;;;11.02;2.40;;;;;;;16.57;65.08;101830.09;4981790;28;101831;-67
2021/05/25 05:03:52;;;;;;;4.00;1.58;;;;;;;16.56;65.21;101817.47;4980325;28;103903;-67
2021/05/25 05:06:20;;;;;;;7.97;1.80;;;;;;;16.43;65.43;101824.41;4980935;28;101735;-70
2021/05/25 05:08:46;;;;;;;8.95;2.25;;;;;;;16.53;64.38;101827.09;4980547;28;101702;-71
2021/05/25 05:11:14;;;;;;;5.38;1.60;;;;;;;16.48;64.40;101832.66;4981661;28;102163;-71
2021/05/25 05:13:42;;;;;;;20.40;3.10;;;;;;;16.43;64.43;101829.09;4980058;28;104095;-71
2021/05/25 05:16:11;;;;;;;20.45;3.70;;;;;;;16.48;64.28;101831.81;4980925;28;101587;-71
2021/05/25 05:18:38;;;;;;;8.68;2.20;;;;;;;16.37;63.80;101825.53;4962906;28;101803;-72
2021/05/25 05:21:05;;;;;;;3.25;1.95;;;;;;;16.40;64.13;101829.66;4981680;28;102669;-72
2021/05/25 05:23:34;;;;;;;13.90;3.13;;;;;;;16.39;64.47;101834.34;4980205;28;102375;-72
2021/05/25 05:26:01;;;;;;;4.88;2.25;;;;;;;16.66;64.09;101838.56;4980778;28;101598;-71
2021/05/25 05:28:29;;;;;;;3.50;2.00;;;;;;;16.44;63.27;101833.47;4980257;28;102071;-72
2021/05/25 05:30:55;;;;;;;3.67;2.20;;;;;;;16.65;63.96;101842.41;4981764;28;102023;-72
2021/05/25 05:33:22;;;;;;;4.38;2.00;;;;;;;16.79;63.12;101837.97;4979697;28;102804;-72
2021/05/25 05:35:49;;;;;;;6.68;2.22;;;;;;;16.82;63.19;101820.91;4979274;28;101624;-72
2021/05/25 05:38:15;;;;;;;3.97;1.90;;;;;;;16.83;63.38;101839.03;4979943;28;101572;-72
2021/05/25 05:40:43;;;;;;;3.80;2.08;;;;;;;16.94;63.20;101834.28;4981349;28;102119;-72
2021/05/25 05:43:10;;;;;;;7.63;2.20;;;;;;;16.97;62.63;101825.44;4979745;28;104044;-71
2021/05/25 05:45:37;;;;;;;24.05;2.88;;;;;;;16.84;63.51;101817.84;4980719;28;101842;-71
2021/05/25 05:48:05;;;;;;;8.23;1.77;;;;;;;16.79;63.86;101814.03;4979950;28;101699;-72
2021/05/25 05:50:32;;;;;;;4.38;1.60;;;;;;;16.94;63.50;101806.78;4981241;28;102148;-73
2021/05/25 05:52:59;;;;;;;4.38;1.80;;;;;;;17.01;63.20;101801.75;4979321;28;102806;-72
2021/05/25 05:55:27;;;;;;;3.33;2.00;;;;;;;16.98;63.24;101800.41;4980314;28;101869;-73
2021/05/25 05:57:55;;;;;;;3.10;1.98;;;;;;;17.03;63.38;101805.06;4979787;28;101666;-72
2021/05/25 06:00:22;;;;;;;1.92;1.83;;;;;;;17.06;63.05;101812.75;4981178;28;102140;-72
2021/05/25 06:02:49;;;;;;;3.67;2.25;;;;;;;16.91;63.90;101812.84;4962101;28;103578;-73
2021/05/25 06:05:15;;;;;;;6.90;2.80;;;;;;;16.76;63.68;101816.53;4980167;28;101733;-73
2021/05/25 06:07:42;;;;;;;7.90;3.13;;;;;;;16.74;65.03;101802.28;4979862;28;101718;-71
2021/05/25 06:10:10;;;;;;;3.75;2.90;;;;;;;16.81;64.13;101798.09;4979757;28;102087;-72
2021/05/25 06:12:37;;;;;;;2.95;2.70;;;;;;;16.86;64.54;101805.47;4982813;28;103903;-71
2021/05/25 06:15:06;;;;;;;3.88;2.78;;;;;;;16.86;64.68;101805.47;4983757;28;101869;-72
2021/05/25 06:17:33;;;;;;;4.40;3.30;;;;;;;16.92;64.05;101815.31;4983234;28;101772;-71
2021/05/25 06:20:00;;;;;;;11.25;3.30;;;;;;;16.95;64.87;101809.25;4984196;28;102101;-79
2021/05/25 06:22:27;;;;;;;11.18;3.25;;;;;;;16.90;65.06;101805.72;4982839;28;103958;-79
2021/05/25 06:24:53;;;;;;;16.58;3.45;;;;;;;16.98;64.39;101814.16;4983785;28;101812;-80
2021/05/25 06:27:20;;;;;;;10.45;3.53;;;;;;;16.92;64.16;101820.81;4983719;28;101813;-81
2021/05/25 06:29:47;;;;;;;12.63;4.10;;;;;;;16.87;64.94;101818.09;4967642;28;101921;-80
2021/05/25 06:32:14;;;;;;;9.63;3.50;;;;;;;16.99;64.46;101813.06;4983513;28;104008;-79
2021/05/25 06:34:41;;;;;;;9.40;3.70;;;;;;;17.05;64.78;101814.63;4984128;28;101558;-80
2021/05/25 06:37:08;;;;;;;12.23;4.00;;;;;;;17.10;64.47;101821.22;4985039;28;101598;-80
2021/05/25 06:39:34;;;;;;;6.13;4.07;;;;;;;17.08;64.63;101812.44;4987943;28;102014;-81
2021/05/25 06:42:01;;;;;;;5.07;3.50;;;;;;;17.13;64.39;101823.38;4968856;28;103344;-81
2021/05/25 06:44:31;;;;;;;5.30;3.07;;;;;;;17.21;64.03;101817.28;4969545;28;101872;-82
2021/05/25 06:46:58;;;;;;;23.57;4.83;;;;;;;17.23;64.19;101810.34;4985240;28;101690;-78
2021/05/25 06:49:27;;;;;;;16.80;4.17;;;;;;;17.32;64.88;101818.81;4985139;28;102193;-77
2021/05/25 06:51:54;;;;;;;23.17;4.00;;;;;;;17.27;64.52;101833.44;4982736;28;103914;-76
2021/05/25 06:54:21;;;;;;;9.07;3.65;;;;;;;17.21;64.49;101822.78;4984130;28;101689;-77
2021/05/25 06:56:48;;;;;;;11.35;3.15;;;;;;;17.12;64.31;101821.75;4982824;28;101600;-77
2021/05/25 06:59:14;;;;;;;16.83;3.85;;;;;;;17.09;64.48;101833.31;4983842;28;102069;-77
2021/05/25 07:01:41;;;;;;;7.10;3.60;;;;;;;17.13;63.89;101837.97;4982517;28;103926;-75
2021/05/25 07:04:07;;;;;;;12.35;3.90;;;;;;;17.19;64.39;101830.50;4983277;28;101694;-76
2021/05/25 07:06:34;;;;;;;7.10;3.53;;;;;;;17.14;64.42;101833.28;4982391;28;101833;-76
2021/05/25 07:09:03;;;;;;;6.20;3.60;;;;;;;17.13;64.00;101826.13;4983437;28;102190;-76
2021/05/25 07:11:29;;;;;;;5.63;3.87;;;;;;;17.16;64.18;101814.56;4982161;28;103859;-76
2021/05/25 07:13:58;;;;;;;18.60;8.23;;;;;;;17.13;64.36;101810.47;4982167;28;101967;-76
2021/05/25 07:16:24;;;;;;;14.55;8.35;;;;;;;17.21;64.71;101807.09;4982134;28;101776;-77
2021/05/25 07:18:51;;;;;;;14.25;7.60;;;;;;;17.30;64.52;101805.34;4982745;28;102143;-76
2021/05/25 07:21:18;;;;;;;12.60;6.95;;;;;;;17.40;64.53;101814.63;4981299;28;104035;-77
2021/05/25 07:23:46;;;;;;;9.93;5.45;;;;;;;17.44;64.01;101813.72;4981448;28;102136;-76
2021/05/25 07:26:13;;;;;;;9.25;5.43;;;;;;;17.56;64.12;101815.25;4980855;28;101785;-77
2021/05/25 07:28:41;;;;;;;10.68;5.55;;;;;;;17.72;64.15;101797.47;4982995;28;102199;-77
2021/05/25 07:31:08;;;;;;;10.68;5.05;;;;;;;17.76;63.81;101806.81;4982067;28;103139;-82
2021/05/25 07:33:34;;;;;;;10.55;5.43;;;;;;;17.68;63.80;101799.19;4982929;28;101788;-77
2021/05/25 07:36:01;;;;;;;8.13;4.25;;;;;;;17.62;63.82;101797.59;4964740;28;101817;-76
2021/05/25 07:38:28;;;;;;;9.25;5.05;;;;;;;17.63;63.63;101791.78;4983445;28;102075;-77
2021/05/25 07:40:55;;;;;;;18.48;6.13;;;;;;;17.68;64.32;101788.16;4964700;28;102829;-77
2021/05/25 07:43:22;;;;;;;11.82;4.90;;;;;;;17.71;64.03;101782.91;4982537;28;101598;-76
2021/05/25 07:45:49;;;;;;;8.68;5.35;;;;;;;17.78;64.23;101790.84;4964238;28;101837;-77
2021/05/25 07:48:15;;;;;;;9.30;6.07;;;;;;;17.78;63.37;101810.09;4965335;28;102159;-76
2021/05/25 07:50:42;;;;;;;9.18;5.57;;;;;;;17.76;63.30;101813.13;4981512;28;103722;-77
2021/05/25 07:53:09;;;;;;;8.75;5.72;;;;;;;17.86;63.86;101816.91;4981752;28;101701;-75
2021/05/25 07:55:35;;;;;;;10.35;5.53;;;;;;;17.77;64.06;101811.19;4981784;28;101607;-77
2021/05/25 07:58:03;;;;;;;6.75;5.05;;;;;;;17.87;64.16;101802.81;4982655;28;102158;-77
2021/05/25 08:00:32;;;;;;;8.05;5.72;;;;;;;17.86;63.53;101800.38;4981129;28;103892;-78
2021/05/25 08:02:58;;;;;;;7.38;5.20;;;;;;;17.81;63.72;101798.47;4982135;28;101772;-79
2021/05/25 08:05:28;;;;;;;12.75;5.93;;;;;;;17.88;63.76;101804.44;4981557;28;101759;-79
2021/05/25 08:07:55;;;;;;;8.73;5.93;;;;;;;17.99;63.68;101806.00;4982206;28;102181;-79
2021/05/25 08:10:22;;;;;;;12.65;5.82;;;;;;;18.03;63.65;101795.19;4981239;28;104007;-79
2021/05/25 08:12:51;;;;;;;10.35;6.32;;;;;;;18.07;63.41;101789.91;4981997;28;101562;-79
2021/05/25 08:15:25;;;;;;;12.00;6.13;;;;;;;18.07;63.82;101789.91;4981054;28;101699;-79
2021/05/25 08:20:34;;;;;;;10.27;6.53;;;;;;;18.00;63.85;101796.59;4981023;28;103948;-79
2021/05/25 08:23:02;;;;;;;10.98;6.45;;;;;;;18.06;64.57;101796.53;4964405;28;101745;-79
2021/05/25 08:25:31;;;;;;;9.55;5.95;;;;;;;18.13;63.71;101799.75;4981231;28;101658;-78
2021/05/25 08:28:01;;;;;;;13.18;5.93;;;;;;;18.12;63.43;101798.94;4982427;28;101995;-78
2021/05/25 08:30:33;;;;;;;8.85;6.30;;;;;;;18.11;63.95;101791.78;4980575;28;102750;-78
2021/05/25 08:33:00;;;;;;;8.52;5.90;;;;;;;18.13;63.43;101783.22;4981255;28;101625;-78
2021/05/25 08:35:34;;;;;;;9.73;6.15;;;;;;;18.23;63.53;101783.06;4980524;28;101633;-78
2021/05/25 08:38:03;;;;;;;8.45;5.80;;;;;;;18.29;63.38;101786.59;4982113;28;102079;-78
2021/05/25 08:40:31;;;;;;;11.50;7.05;;;;;;;18.25;63.86;101783.59;4980284;28;102830;-78
2021/05/25 08:42:59;;;;;;;10.00;5.97;;;;;;;18.38;62.95;101788.34;4981549;28;101856;-79
2021/05/25 08:45:26;;;;;;;8.98;6.22;;;;;;;18.30;63.24;101786.28;4963326;28;101914;-78
2021/05/25 08:47:55;;;;;;;9.43;5.40;;;;;;;18.34;62.77;101781.81;4982059;28;102188;-79
2021/05/25 08:50:28;;;;;;;10.95;5.75;;;;;;;18.35;62.78;101788.94;4980480;28;103931;-79
2021/05/25 08:52:57;;;;;;;25.33;7.63;;;;;;;18.50;62.98;101790.69;4981002;28;102132;-77
2021/05/25 08:55:24;;;;;;;70.43;14.95;;;;;;;18.56;63.34;101785.91;4980507;28;101695;-78
2021/05/25 08:57:50;;;;;;;28.10;7.68;;;;;;;18.59;63.06;101779.78;4981680;28;102206;-79
2021/05/25 09:00:17;;;;;;;20.77;7.45;;;;;;;18.56;63.40;101772.94;4979839;28;103532;-79
2021/05/25 09:02:43;;;;;;;16.38;7.25;;;;;;;18.46;62.88;101776.69;4981159;28;101687;-79
2021/05/25 09:05:14;;;;;;;48.47;9.13;;;;;;;18.45;63.50;101786.06;4980786;28;101780;-78
2021/05/25 09:07:44;;;;;;;16.80;7.43;;;;;;;18.46;63.21;101789.63;4981844;28;102000;-78
2021/05/25 09:10:16;;;;;;;12.98;6.57;;;;;;;18.50;63.19;101787.94;4979995;28;103955;-78
2021/05/25 09:12:45;;;;;;;17.58;6.72;;;;;;;18.44;63.25;101789.94;4980816;28;101717;-78
2021/05/25 09:15:13;;;;;;;13.38;6.85;;;;;;;18.37;63.32;101788.66;4980050;28;101834;-78
2021/05/25 09:17:40;;;;;;;15.90;6.63;;;;;;;18.39;63.45;101792.78;4963760;28;102218;-76
2021/05/25 09:20:09;;;;;;;17.33;6.32;;;;;;;18.41;63.89;101785.00;4980051;28;102730;-77
2021/05/25 09:22:38;;;;;;;;;;;;;;;18.53;63.37;101775.47;4981007;28;101793;-77
2021/05/25 09:25:18;;;;;;;12.52;7.00;;;;;;;18.49;63.37;101770.53;4980077;28;101660;-77
2021/05/25 09:27:46;;;;;;;;;;;;;;;18.62;63.10;101770.94;4980310;28;101914;-77
2021/05/25 09:30:15;;;;;;;17.67;7.53;;;;;;;18.64;63.65;101769.47;4979634;28;104094;-76
2021/05/25 09:32:46;;;;;;;14.40;7.32;;;;;;;18.69;63.24;101768.59;4980127;28;101683;-77
2021/05/25 09:35:15;;;;;;;9.63;7.05;;;;;;;18.73;62.69;101770.47;4979560;28;101688;-77
2021/05/25 09:37:45;;;;;;;11.00;7.97;;;;;;;18.76;63.44;101769.06;4981250;28;102350;-77
2021/05/25 09:40:15;;;;;;;11.90;7.68;;;;;;;18.67;63.33;101759.81;4979523;28;103792;-77
2021/05/25 09:42:41;;;;;;;14.82;7.60;;;;;;;18.65;63.53;101753.78;4980081;28;101733;-77
2021/05/25 09:45:12;;;;;;;10.90;7.50;;;;;;;18.67;63.46;101754.28;4978984;28;101605;-77
2021/05/25 09:47:41;;;;;;;10.43;7.15;;;;;;;18.59;63.39;101746.72;4977849;28;101741;-77
2021/05/25 09:50:09;;;;;;;16.10;7.90;;;;;;;18.58;63.64;101745.91;4979113;28;102760;-77
2021/05/25 09:52:56;;;;;;;11.93;7.63;;;;;;;18.73;63.74;101753.94;4979377;28;102101;-77
2021/05/25 09:55:24;;;;;;;13.55;7.75;;;;;;;18.91;63.46;101746.75;4979950;28;101703;-78
2021/05/25 09:57:53;;;;;;;15.05;7.72;;;;;;;19.01;63.46;101744.94;4979780;28;102285;-77
2021/05/25 10:00:25;;;;;;;11.95;7.80;;;;;;;19.10;63.06;101743.09;4978981;28;102797;-77
2021/05/25 10:03:04;;;;;;;13.63;7.85;;;;;;;19.21;62.88;101733.50;4980242;28;101670;-78
2021/05/25 10:05:31;;;;;;;13.57;7.25;;;;;;;19.24;62.61;101721.84;4979438;28;101668;-77
2021/05/25 10:08:00;;;;;;;12.40;7.78;;;;;;;19.13;63.04;101734.22;4981194;28;102274;-77
2021/05/25 10:10:29;;;;;;;13.90;7.25;;;;;;;19.04;63.38;101725.00;4961839;28;103876;-77
2021/05/25 10:13:02;;;;;;;9.80;7.05;;;;;;;19.23;63.29;101723.00;4980535;28;101672;-77
2021/05/25 10:15:30;;;;;;;10.40;6.88;;;;;;;19.30;62.78;101714.31;4979354;28;101660;-77
2021/05/25 10:20:26;;;;;;;10.18;7.53;;;;;;;18.92;63.29;101701.47;4979030;28;103965;-77
2021/05/25 10:22:53;;;;;;;11.20;7.82;;;;;;;18.85;63.28;101689.22;4980345;28;101843;-77
2021/05/25 10:25:21;;;;;;;9.98;7.78;;;;;;;18.80;63.55;101679.09;4979472;28;101943;-77
2021/05/25 10:27:49;;;;;;;9.23;7.70;;;;;;;19.03;62.51;101684.75;4980845;28;102077;-76
2021/05/25 10:30:36;;;;;;;14.73;7.80;;;;;;;19.16;63.29;101679.25;4979289;28;103965;-77
2021/05/25 10:33:29;;;;;;;11.80;7.85;;;;;;;18.94;64.28;101670.84;4980199;28;101558;-77
2021/05/25 10:36:04;;;;;;;8.40;7.60;;;;;;;18.81;63.57;101672.44;4979558;28;101839;-77
2021/05/25 10:38:33;;;;;;;8.35;7.55;;;;;;;18.82;64.12;101668.56;4980938;28;102042;-77
2021/05/25 10:41:02;;;;;;;14.32;8.60;;;;;;;18.85;63.25;101659.69;4979194;28;103079;-77
2021/05/25 10:43:40;;;;;;;10.13;7.55;;;;;;;18.98;63.59;101660.03;4977114;28;101633;-76
2021/05/25 10:46:21;;;;;;;8.88;7.43;;;;;;;18.84;63.70;101665.53;4979878;28;102025;-77
2021/05/25 10:52:11;;;;;;;8.00;6.60;;;;;;;19.07;62.69;101669.22;4978777;28;103850;-76
2021/05/25 10:54:50;;;;;;;10.65;6.53;;;;;;;19.10;62.52;101652.88;4979844;28;101796;-77
2021/05/25 10:57:36;;;;;;;;;;;;;;;19.06;63.04;101662.06;4984404;28;101557;-78
2021/05/25 11:00:09;;;;;;;9.77;7.03;;;;;;;19.08;63.72;101657.06;4987545;28;102075;-76
2021/05/25 11:02:48;;;;;;;13.68;7.65;;;;;;;19.15;64.08;101654.72;4985997;28;104153;-77
2021/05/25 11:05:51;;;;;;;9.32;8.20;;;;;;;19.29;63.78;101644.47;4969177;28;101999;-78
2021/05/25 11:08:41;;;;;;;14.20;8.18;;;;;;;19.03;64.10;101646.13;4984093;28;101817;-77
2021/05/25 11:11:28;;;;;;;10.75;7.88;;;;;;;18.96;64.32;101647.34;4984730;28;102011;-77
2021/05/25 11:13:56;;;;;;;12.60;8.00;;;;;;;18.93;64.15;101645.22;4965262;28;103899;-81
2021/05/25 11:16:30;;;;;;;8.38;7.43;;;;;;;18.93;63.57;101645.22;4983449;28;101798;-78
2021/05/25 11:24:46;;;;;;;10.60;7.78;;;;;;;18.81;64.49;101639.34;4981980;28;104102;-78
2021/05/25 11:27:15;;;;;;;11.52;7.90;;;;;;;18.78;64.72;101639.16;4982719;28;101692;-77
2021/05/25 11:29:50;;;;;;;13.02;9.10;;;;;;;18.79;64.85;101647.13;4982273;28;101767;-77
2021/05/25 11:32:21;;;;;;;16.23;9.25;;;;;;;18.79;65.13;101632.50;4983197;28;101983;-78
2021/05/25 11:34:55;;;;;;;12.73;9.13;;;;;;;18.93;65.10;101625.91;4981606;28;103883;-78
2021/05/25 11:37:24;;;;;;;26.17;10.63;;;;;;;19.05;65.20;101633.66;4965114;28;101921;-78